Azamara Quest — V7DM6 — position and weather

sailwx.info

Track history (hours):
 
Tides and Currents Weather Stations Pressure Air Temp Water Temp Dewpoint Dewpoint Depression Visibility Wind Speed Wind Dir Waves Ship Positions

Azamara Quest

Last reported at 2019-Mar-18 01:46 UTC. Time now 2019-Mar-22 12:31 UTC.
Position N 40°57' E 001°50'.

Length 184 m; draft 8 m.

Type: Tanker. MMSI: 538005401.

Date/timePositionNaut miles runAvg speedWind from/ knotsBaromVisibWave heightAir tempDewpointWater temp
2019-Mar-18 01:46N 40°57' E 001°50'0 1.8
2019-Mar-18 01:30N 40°57' E 001°50'1 1.7
2019-Mar-18 00:58N 40°58' E 001°50'1 1.6
2019-Mar-18 00:30N 40°59' E 001°50'1 1.3
2019-Mar-18 00:00N 40°59' E 001°49'0 0.7
2019-Mar-17 23:28N 40°59' E 001°49'0 0.6
2019-Mar-17 22:57N 40°59' E 001°48'2 3.9
2019-Mar-17 22:30N 41°01' E 001°48'4 8.6
2019-Mar-17 22:00N 41°05' E 001°48'2 4.8
2019-Mar-17 21:30N 41°08' E 001°48'1 1.7
2019-Mar-17 21:00N 41°08' E 001°49'4 8.8
2019-Mar-17 20:30N 41°09' E 001°54'5 9.8
2019-Mar-17 20:00N 41°11' E 002°01'510.0
2019-Mar-17 19:30N 41°12' E 002°07'5 9.1
2019-Mar-17 19:00N 41°16' E 002°10'4 8.4
2019-Mar-17 18:30N 41°20' E 002°10'1 0.3
2019-Mar-17 15:29N 41°21' E 002°10'0 0.0
2019-Mar-17 11:17N 41°21' E 002°10'0 0.0
2019-Mar-15 10:50N 41°21' E 002°10'1 2.3
2019-Mar-15 10:30N 41°20' E 002°09'0 0.1
2019-Mar-15 05:51N 41°20' E 002°09'0 0.0
2019-Mar-15 02:00N 41°20' E 002°09'0 0.0
2019-Mar-15 00:12N 41°20' E 002°09'0 0.0
2019-Mar-14 23:30N 41°20' E 002°09'0 0.0
2019-Mar-14 21:00N 41°20' E 002°09'0 0.0
2019-Mar-14 20:30N 41°20' E 002°09'0 0.0
2019-Mar-14 19:54N 41°20' E 002°09'0 0.0
2019-Mar-14 19:30N 41°20' E 002°09'0 0.0
2019-Mar-14 18:51N 41°20' E 002°09'0 0.0
2019-Mar-14 16:43N 41°20' E 002°09'0 0.1
2019-Mar-14 16:30N 41°20' E 002°09'1 1.8
2019-Mar-14 16:01N 41°20' E 002°10'2 4.6
2019-Mar-14 15:30N 41°18' E 002°12'0 0.5
2019-Mar-14 15:01N 41°19' E 002°12'0 0.1
2019-Mar-14 14:20N 41°19' E 002°12'0 0.1
2019-Mar-14 13:59N 41°19' E 002°12'0 0.1
2019-Mar-14 13:29N 41°19' E 002°12'0 0.1
2019-Mar-14 12:59N 41°19' E 002°12'0 0.0
2019-Mar-14 12:29N 41°19' E 002°12'0 0.1
2019-Mar-14 11:59N 41°19' E 002°12'0 0.0
2019-Mar-14 11:29N 41°19' E 002°12'0 0.0
2019-Mar-14 10:59N 41°19' E 002°12'0 0.1
2019-Mar-14 10:29N 41°19' E 002°12'0 0.1
2019-Mar-14 09:59N 41°19' E 002°12'0 0.1
2019-Mar-14 09:29N 41°19' E 002°12'0 0.0
2019-Mar-14 08:59N 41°19' E 002°12'0 0.0
2019-Mar-14 08:29N 41°19' E 002°12'0 0.0
2019-Mar-14 07:59N 41°19' E 002°12'0 0.0
2019-Mar-14 07:29N 41°19' E 002°12'0 0.0
2019-Mar-14 06:59N 41°19' E 002°12'0 0.1
2019-Mar-14 06:29N 41°19' E 002°12'0 0.0
2019-Mar-14 05:59N 41°19' E 002°12'0 0.1
2019-Mar-14 05:26N 41°19' E 002°12'0 0.1
2019-Mar-14 04:59N 41°19' E 002°12'0 0.0
2019-Mar-14 04:29N 41°19' E 002°12'0 0.1
2019-Mar-14 03:59N 41°19' E 002°12'0 0.1
2019-Mar-14 03:29N 41°19' E 002°12'0 0.1
2019-Mar-14 02:59N 41°19' E 002°12'0 0.0
2019-Mar-14 02:29N 41°19' E 002°12'0 0.1
2019-Mar-14 01:59N 41°19' E 002°12'0 0.1
2019-Mar-14 01:29N 41°19' E 002°12'0 0.2
2019-Mar-14 00:59N 41°19' E 002°12'0 0.1
2019-Mar-14 00:29N 41°19' E 002°12'0 0.1
2019-Mar-13 23:59N 41°19' E 002°12'0 0.0
2019-Mar-13 23:29N 41°19' E 002°12'0 0.0
2019-Mar-13 22:59N 41°19' E 002°12'0 0.0
2019-Mar-13 22:29N 41°19' E 002°12'0 0.0
2019-Mar-13 21:59N 41°19' E 002°12'0 0.1
2019-Mar-13 21:29N 41°19' E 002°12'0 0.1
2019-Mar-13 20:59N 41°19' E 002°12'0 0.0
2019-Mar-13 20:29N 41°19' E 002°12'0 0.0
2019-Mar-13 19:59N 41°19' E 002°12'0 0.0
2019-Mar-13 19:29N 41°19' E 002°12'0 0.0
2019-Mar-13 18:59N 41°19' E 002°12'0 0.0
2019-Mar-13 18:29N 41°19' E 002°12'0 0.0
2019-Mar-13 17:59N 41°19' E 002°12'0 0.0
2019-Mar-13 17:29N 41°19' E 002°12'0 0.0
2019-Mar-13 16:59N 41°19' E 002°12'0 0.0
2019-Mar-13 16:29N 41°19' E 002°12'0 0.0
2019-Mar-13 15:59N 41°19' E 002°12'0 0.0
2019-Mar-13 15:29N 41°19' E 002°12'0 0.0
2019-Mar-13 14:59N 41°19' E 002°12'0 0.0
2019-Mar-13 14:29N 41°19' E 002°12'0 0.0
2019-Mar-13 13:59N 41°19' E 002°12'0 0.0
2019-Mar-13 13:29N 41°19' E 002°12'0 0.0
2019-Mar-13 12:59N 41°19' E 002°12'0 0.0
2019-Mar-13 12:29N 41°19' E 002°12'0 0.0
2019-Mar-13 11:59N 41°19' E 002°12'0 0.0
2019-Mar-13 11:29N 41°19' E 002°12'0 0.3
2019-Mar-13 10:59N 41°19' E 002°11'0 1.0
2019-Mar-13 10:30N 41°18' E 002°12'3 5.3
2019-Mar-13 10:00N 41°16' E 002°14'4 8.3
2019-Mar-13 09:30N 41°13' E 002°18'612.3
2019-Mar-13 09:00N 41°10' E 002°25'50310.4
2019-Mar-11 08:46N 38°30' E 012°45'411.5
2019-Mar-11 08:26N 38°30' E 012°50'511.3
2019-Mar-11 08:00N 38°30' E 012°56'611.1
2019-Mar-11 07:30N 38°30' E 013°03'510.9
2019-Mar-11 07:00N 38°29' E 013°10'610.8
2019-Mar-11 06:29N 38°29' E 013°17'510.8
2019-Mar-11 06:00N 38°29' E 013°24'510.9
2019-Mar-11 05:30N 38°28' E 013°31'510.6
2019-Mar-11 05:00N 38°27' E 013°38'611.0
2019-Mar-11 04:30N 38°26' E 013°45'611.2
2019-Mar-11 04:00N 38°25' E 013°52'611.2
2019-Mar-11 03:30N 38°24' E 013°59'611.4
2019-Mar-11 02:56N 38°23' E 014°07'2311.7
2019-Mar-11 00:57N 38°20' E 014°36'612.2
2019-Mar-11 00:29N 38°19' E 014°43'612.2
2019-Mar-11 00:00N 38°18' E 014°51'612.0
2019-Mar-10 23:30N 38°19' E 014°58'612.1
2019-Mar-10 23:00N 38°20' E 015°06'611.7
2019-Mar-10 22:30N 38°19' E 015°13'5 9.2
2019-Mar-10 22:00N 38°15' E 015°17'3 4.7
2019-Mar-10 21:25N 38°13' E 015°16'0 0.0
2019-Mar-10 20:58N 38°13' E 015°16'0 0.0
2019-Mar-10 20:28N 38°13' E 015°16'0 0.0
2019-Mar-10 19:58N 38°13' E 015°16'0 0.0
2019-Mar-10 19:28N 38°13' E 015°16'0 0.0
2019-Mar-10 18:58N 38°13' E 015°16'0 0.0
2019-Mar-10 18:28N 38°13' E 015°16'0 0.0
2019-Mar-10 17:58N 38°13' E 015°16'0 0.0
2019-Mar-10 17:28N 38°13' E 015°16'0 0.0
2019-Mar-10 16:58N 38°13' E 015°16'0 0.0
2019-Mar-10 16:28N 38°13' E 015°16'0 0.0
2019-Mar-10 15:58N 38°13' E 015°16'0 0.0
2019-Mar-10 15:28N 38°13' E 015°16'0 0.0
2019-Mar-10 14:58N 38°13' E 015°16'0 0.0
2019-Mar-10 14:28N 38°13' E 015°16'0 0.0
2019-Mar-10 13:58N 38°13' E 015°16'0 0.0
2019-Mar-10 13:28N 38°13' E 015°16'0 0.0
2019-Mar-10 12:58N 38°13' E 015°16'0 0.0
2019-Mar-10 12:28N 38°13' E 015°16'0 0.0
2019-Mar-10 11:58N 38°13' E 015°16'0 0.0
2019-Mar-10 11:28N 38°13' E 015°16'0 0.0
2019-Mar-10 10:58N 38°13' E 015°16'0 0.0
2019-Mar-10 10:28N 38°13' E 015°16'0 0.0
2019-Mar-10 09:58N 38°13' E 015°16'0 0.0
2019-Mar-10 09:28N 38°13' E 015°16'0 0.0
2019-Mar-10 08:58N 38°13' E 015°16'0 0.0
2019-Mar-10 08:25N 38°13' E 015°16'0 0.0
2019-Mar-10 07:58N 38°13' E 015°16'0 0.0
2019-Mar-10 07:28N 38°13' E 015°16'0 0.0
2019-Mar-10 06:58N 38°13' E 015°16'0 0.0
2019-Mar-10 06:25N 38°13' E 015°16'0 0.0
2019-Mar-10 05:58N 38°13' E 015°16'0 0.0
2019-Mar-10 05:28N 38°13' E 015°16'0 0.0
2019-Mar-10 04:58N 38°13' E 015°16'0 0.0
2019-Mar-10 04:28N 38°13' E 015°16'0 0.0
2019-Mar-10 03:58N 38°13' E 015°16'0 0.0
2019-Mar-10 03:28N 38°13' E 015°16'0 0.0
2019-Mar-10 02:58N 38°13' E 015°16'0 0.0
2019-Mar-10 02:28N 38°13' E 015°16'0 0.0
2019-Mar-10 01:58N 38°13' E 015°16'0 0.0
2019-Mar-10 01:28N 38°13' E 015°16'0 0.0
2019-Mar-10 00:58N 38°13' E 015°16'0 0.0
2019-Mar-10 00:28N 38°13' E 015°16'0 0.0
2019-Mar-09 23:58N 38°13' E 015°16'0 0.0
2019-Mar-09 23:28N 38°13' E 015°16'0 0.0
2019-Mar-09 22:58N 38°13' E 015°16'0 0.0
2019-Mar-09 22:28N 38°13' E 015°16'0 0.0
2019-Mar-09 21:58N 38°13' E 015°16'0 0.0
2019-Mar-09 21:28N 38°13' E 015°16'0 0.0
2019-Mar-09 20:58N 38°13' E 015°16'0 0.0
2019-Mar-09 20:25N 38°13' E 015°16'0 0.0
2019-Mar-09 19:58N 38°13' E 015°16'0 0.0
2019-Mar-09 19:28N 38°13' E 015°16'0 0.0
2019-Mar-09 18:58N 38°13' E 015°16'0 0.0
2019-Mar-09 18:28N 38°13' E 015°16'0 0.0
2019-Mar-09 17:55N 38°13' E 015°16'0 0.0
2019-Mar-09 17:28N 38°13' E 015°16'0 0.0
2019-Mar-09 16:58N 38°13' E 015°16'0 0.0
2019-Mar-09 16:28N 38°13' E 015°16'0 0.0
2019-Mar-09 15:52N 38°13' E 015°16'0 0.0
2019-Mar-09 15:28N 38°13' E 015°16'0 0.0
2019-Mar-09 14:58N 38°13' E 015°16'0 0.0
2019-Mar-09 14:25N 38°13' E 015°16'0 0.0
2019-Mar-09 13:58N 38°13' E 015°16'0 0.0
2019-Mar-09 13:28N 38°13' E 015°16'0 0.0
2019-Mar-09 12:58N 38°13' E 015°16'0 0.0
2019-Mar-09 12:28N 38°13' E 015°16'0 0.0
2019-Mar-09 11:58N 38°13' E 015°16'0 0.0
2019-Mar-09 11:28N 38°13' E 015°16'0 0.0
2019-Mar-09 10:58N 38°13' E 015°16'0 0.0
2019-Mar-09 10:28N 38°13' E 015°16'0 0.0
2019-Mar-09 09:58N 38°13' E 015°16'0 0.0
2019-Mar-09 09:28N 38°13' E 015°16'0 0.0
2019-Mar-09 08:58N 38°13' E 015°16'0 0.0
2019-Mar-09 08:28N 38°13' E 015°16'0 0.0
2019-Mar-09 07:58N 38°13' E 015°16'0 0.0
2019-Mar-09 07:28N 38°13' E 015°16'0 0.0
2019-Mar-09 06:58N 38°13' E 015°16'0 0.0
2019-Mar-09 06:28N 38°13' E 015°16'0 0.0
2019-Mar-09 05:58N 38°13' E 015°16'0 0.0
2019-Mar-09 05:28N 38°13' E 015°16'0 0.0
2019-Mar-09 04:55N 38°13' E 015°16'0 0.0
2019-Mar-09 04:28N 38°13' E 015°16'0 0.0
2019-Mar-09 03:58N 38°13' E 015°16'0 0.0
2019-Mar-09 03:28N 38°13' E 015°16'0 0.0
2019-Mar-09 02:58N 38°13' E 015°16'0 0.0
2019-Mar-09 02:28N 38°13' E 015°16'0 0.0
2019-Mar-09 01:58N 38°13' E 015°16'0 0.0
2019-Mar-09 01:28N 38°13' E 015°16'0 0.0
2019-Mar-09 00:58N 38°13' E 015°16'0 0.0
2019-Mar-09 00:28N 38°13' E 015°16'0 0.0
2019-Mar-08 23:58N 38°13' E 015°16'0 0.0
2019-Mar-08 23:28N 38°13' E 015°16'0 0.0
2019-Mar-08 22:58N 38°13' E 015°16'0 0.0
2019-Mar-08 22:28N 38°13' E 015°16'0 0.0
2019-Mar-08 21:58N 38°13' E 015°16'0 0.0
2019-Mar-08 21:28N 38°13' E 015°16'0 0.0
2019-Mar-08 20:58N 38°13' E 015°16'0 0.0
2019-Mar-08 20:28N 38°13' E 015°16'0 0.0
2019-Mar-08 19:58N 38°13' E 015°16'0 0.0
2019-Mar-08 19:28N 38°13' E 015°16'0 0.0
2019-Mar-08 18:55N 38°13' E 015°16'0 0.0
2019-Mar-08 18:22N 38°13' E 015°16'0 0.0
2019-Mar-08 17:58N 38°13' E 015°16'0 0.0
2019-Mar-08 17:28N 38°13' E 015°16'0 0.0
2019-Mar-08 16:58N 38°13' E 015°16'0 0.0
2019-Mar-08 16:28N 38°13' E 015°16'0 0.0
2019-Mar-08 15:58N 38°13' E 015°16'0 0.0
2019-Mar-08 15:28N 38°13' E 015°16'0 0.0
2019-Mar-08 14:58N 38°13' E 015°16'0 0.0
2019-Mar-08 14:28N 38°13' E 015°16'0 0.0
2019-Mar-08 13:58N 38°13' E 015°16'0 0.0
2019-Mar-08 13:28N 38°13' E 015°16'0 0.0
2019-Mar-08 12:58N 38°13' E 015°16'0 0.0
2019-Mar-08 12:28N 38°13' E 015°16'0 0.0
2019-Mar-08 11:58N 38°13' E 015°16'0 0.0
2019-Mar-08 11:28N 38°13' E 015°16'0 0.0
2019-Mar-08 10:58N 38°13' E 015°16'0 0.0
2019-Mar-08 10:28N 38°13' E 015°16'0 0.0
2019-Mar-08 09:55N 38°13' E 015°16'0 0.0
2019-Mar-08 09:28N 38°13' E 015°16'0 0.0
2019-Mar-08 08:58N 38°13' E 015°16'0 0.0
2019-Mar-08 08:28N 38°13' E 015°16'0 0.0
2019-Mar-08 07:58N 38°13' E 015°16'0 0.0
2019-Mar-08 07:28N 38°13' E 015°16'0 0.2
2019-Mar-08 07:00N 38°13' E 015°16'2 3.5
2019-Mar-08 06:30N 38°14' E 015°18'2 3.0
2019-Mar-08 05:59N 38°14' E 015°20'0 0.1
2019-Mar-08 05:29N 38°14' E 015°20'0 0.0
2019-Mar-08 04:59N 38°14' E 015°20'0 0.1
2019-Mar-08 04:29N 38°14' E 015°20'0 0.0
2019-Mar-08 03:59N 38°14' E 015°20'0 0.0
2019-Mar-08 03:29N 38°14' E 015°20'0 0.0
2019-Mar-08 02:59N 38°14' E 015°20'0 0.1
2019-Mar-08 02:29N 38°14' E 015°20'0 0.0
2019-Mar-08 01:59N 38°14' E 015°20'  
Track history (hours):
 
Tides and Currents Weather Stations Pressure Air Temp Water Temp Dewpoint Dewpoint Depression Visibility Wind Speed Wind Dir Waves Ship Positions

Azamara Quest

Last reported at 2019-Mar-18 01:46 UTC. Time now 2019-Mar-22 12:31 UTC.
Position N 40°57' E 001°50'.

Length 184 m; draft 8 m.

Type: Tanker. MMSI: 538005401.

Date/timePositionNaut miles runAvg speedWind from/ knotsBaromVisibWave heightAir tempDewpointWater temp
2019-Mar-18 01:46N 40°57' E 001°50'0 1.8
2019-Mar-18 01:30N 40°57' E 001°50'1 1.7
2019-Mar-18 00:58N 40°58' E 001°50'1 1.6
2019-Mar-18 00:30N 40°59' E 001°50'1 1.3
2019-Mar-18 00:00N 40°59' E 001°49'0 0.7
2019-Mar-17 23:28N 40°59' E 001°49'0 0.6
2019-Mar-17 22:57N 40°59' E 001°48'2 3.9
2019-Mar-17 22:30N 41°01' E 001°48'4 8.6
2019-Mar-17 22:00N 41°05' E 001°48'2 4.8
2019-Mar-17 21:30N 41°08' E 001°48'1 1.7
2019-Mar-17 21:00N 41°08' E 001°49'4 8.8
2019-Mar-17 20:30N 41°09' E 001°54'5 9.8
2019-Mar-17 20:00N 41°11' E 002°01'510.0
2019-Mar-17 19:30N 41°12' E 002°07'5 9.1
2019-Mar-17 19:00N 41°16' E 002°10'4 8.4
2019-Mar-17 18:30N 41°20' E 002°10'1 0.3
2019-Mar-17 15:29N 41°21' E 002°10'0 0.0
2019-Mar-17 11:17N 41°21' E 002°10'0 0.0
2019-Mar-15 10:50N 41°21' E 002°10'1 2.3
2019-Mar-15 10:30N 41°20' E 002°09'0 0.1
2019-Mar-15 05:51N 41°20' E 002°09'0 0.0
2019-Mar-15 02:00N 41°20' E 002°09'0 0.0
2019-Mar-15 00:12N 41°20' E 002°09'0 0.0
2019-Mar-14 23:30N 41°20' E 002°09'0 0.0
2019-Mar-14 21:00N 41°20' E 002°09'0 0.0
2019-Mar-14 20:30N 41°20' E 002°09'0 0.0
2019-Mar-14 19:54N 41°20' E 002°09'0 0.0
2019-Mar-14 19:30N 41°20' E 002°09'0 0.0
2019-Mar-14 18:51N 41°20' E 002°09'0 0.0
2019-Mar-14 16:43N 41°20' E 002°09'0 0.1
2019-Mar-14 16:30N 41°20' E 002°09'1 1.8
2019-Mar-14 16:01N 41°20' E 002°10'2 4.6
2019-Mar-14 15:30N 41°18' E 002°12'0 0.5
2019-Mar-14 15:01N 41°19' E 002°12'0 0.1
2019-Mar-14 14:20N 41°19' E 002°12'0 0.1
2019-Mar-14 13:59N 41°19' E 002°12'0 0.1
2019-Mar-14 13:29N 41°19' E 002°12'0 0.1
2019-Mar-14 12:59N 41°19' E 002°12'0 0.0
2019-Mar-14 12:29N 41°19' E 002°12'0 0.1
2019-Mar-14 11:59N 41°19' E 002°12'0 0.0
2019-Mar-14 11:29N 41°19' E 002°12'0 0.0
2019-Mar-14 10:59N 41°19' E 002°12'0 0.1
2019-Mar-14 10:29N 41°19' E 002°12'0 0.1
2019-Mar-14 09:59N 41°19' E 002°12'0 0.1
2019-Mar-14 09:29N 41°19' E 002°12'0 0.0
2019-Mar-14 08:59N 41°19' E 002°12'0 0.0
2019-Mar-14 08:29N 41°19' E 002°12'0 0.0
2019-Mar-14 07:59N 41°19' E 002°12'0 0.0
2019-Mar-14 07:29N 41°19' E 002°12'0 0.0
2019-Mar-14 06:59N 41°19' E 002°12'0 0.1
2019-Mar-14 06:29N 41°19' E 002°12'0 0.0
2019-Mar-14 05:59N 41°19' E 002°12'0 0.1
2019-Mar-14 05:26N 41°19' E 002°12'0 0.1
2019-Mar-14 04:59N 41°19' E 002°12'0 0.0
2019-Mar-14 04:29N 41°19' E 002°12'0 0.1
2019-Mar-14 03:59N 41°19' E 002°12'0 0.1
2019-Mar-14 03:29N 41°19' E 002°12'0 0.1
2019-Mar-14 02:59N 41°19' E 002°12'0 0.0
2019-Mar-14 02:29N 41°19' E 002°12'0 0.1
2019-Mar-14 01:59N 41°19' E 002°12'0 0.1
2019-Mar-14 01:29N 41°19' E 002°12'0 0.2
2019-Mar-14 00:59N 41°19' E 002°12'0 0.1
2019-Mar-14 00:29N 41°19' E 002°12'0 0.1
2019-Mar-13 23:59N 41°19' E 002°12'0 0.0
2019-Mar-13 23:29N 41°19' E 002°12'0 0.0
2019-Mar-13 22:59N 41°19' E 002°12'0 0.0
2019-Mar-13 22:29N 41°19' E 002°12'0 0.0
2019-Mar-13 21:59N 41°19' E 002°12'0 0.1
2019-Mar-13 21:29N 41°19' E 002°12'0 0.1
2019-Mar-13 20:59N 41°19' E 002°12'0 0.0
2019-Mar-13 20:29N 41°19' E 002°12'0 0.0
2019-Mar-13 19:59N 41°19' E 002°12'0 0.0
2019-Mar-13 19:29N 41°19' E 002°12'0 0.0
2019-Mar-13 18:59N 41°19' E 002°12'0 0.0
2019-Mar-13 18:29N 41°19' E 002°12'0 0.0
2019-Mar-13 17:59N 41°19' E 002°12'0 0.0
2019-Mar-13 17:29N 41°19' E 002°12'0 0.0
2019-Mar-13 16:59N 41°19' E 002°12'0 0.0
2019-Mar-13 16:29N 41°19' E 002°12'0 0.0
2019-Mar-13 15:59N 41°19' E 002°12'0 0.0
2019-Mar-13 15:29N 41°19' E 002°12'0 0.0
2019-Mar-13 14:59N 41°19' E 002°12'0 0.0
2019-Mar-13 14:29N 41°19' E 002°12'0 0.0
2019-Mar-13 13:59N 41°19' E 002°12'0 0.0
2019-Mar-13 13:29N 41°19' E 002°12'0 0.0
2019-Mar-13 12:59N 41°19' E 002°12'0 0.0
2019-Mar-13 12:29N 41°19' E 002°12'0 0.0
2019-Mar-13 11:59N 41°19' E 002°12'0 0.0
2019-Mar-13 11:29N 41°19' E 002°12'0 0.3
2019-Mar-13 10:59N 41°19' E 002°11'0 1.0
2019-Mar-13 10:30N 41°18' E 002°12'3 5.3
2019-Mar-13 10:00N 41°16' E 002°14'4 8.3
2019-Mar-13 09:30N 41°13' E 002°18'612.3
2019-Mar-13 09:00N 41°10' E 002°25'50310.4
2019-Mar-11 08:46N 38°30' E 012°45'411.5
2019-Mar-11 08:26N 38°30' E 012°50'511.3
2019-Mar-11 08:00N 38°30' E 012°56'611.1
2019-Mar-11 07:30N 38°30' E 013°03'510.9
2019-Mar-11 07:00N 38°29' E 013°10'610.8
2019-Mar-11 06:29N 38°29' E 013°17'510.8
2019-Mar-11 06:00N 38°29' E 013°24'510.9
2019-Mar-11 05:30N 38°28' E 013°31'510.6
2019-Mar-11 05:00N 38°27' E 013°38'611.0
2019-Mar-11 04:30N 38°26' E 013°45'611.2
2019-Mar-11 04:00N 38°25' E 013°52'611.2
2019-Mar-11 03:30N 38°24' E 013°59'611.4
2019-Mar-11 02:56N 38°23' E 014°07'2311.7
2019-Mar-11 00:57N 38°20' E 014°36'612.2
2019-Mar-11 00:29N 38°19' E 014°43'612.2
2019-Mar-11 00:00N 38°18' E 014°51'612.0
2019-Mar-10 23:30N 38°19' E 014°58'612.1
2019-Mar-10 23:00N 38°20' E 015°06'611.7
2019-Mar-10 22:30N 38°19' E 015°13'5 9.2
2019-Mar-10 22:00N 38°15' E 015°17'3 4.7
2019-Mar-10 21:25N 38°13' E 015°16'0 0.0
2019-Mar-10 20:58N 38°13' E 015°16'0 0.0
2019-Mar-10 20:28N 38°13' E 015°16'0 0.0
2019-Mar-10 19:58N 38°13' E 015°16'0 0.0
2019-Mar-10 19:28N 38°13' E 015°16'0 0.0
2019-Mar-10 18:58N 38°13' E 015°16'0 0.0
2019-Mar-10 18:28N 38°13' E 015°16'0 0.0
2019-Mar-10 17:58N 38°13' E 015°16'0 0.0
2019-Mar-10 17:28N 38°13' E 015°16'0 0.0
2019-Mar-10 16:58N 38°13' E 015°16'0 0.0
2019-Mar-10 16:28N 38°13' E 015°16'0 0.0
2019-Mar-10 15:58N 38°13' E 015°16'0 0.0
2019-Mar-10 15:28N 38°13' E 015°16'0 0.0
2019-Mar-10 14:58N 38°13' E 015°16'0 0.0
2019-Mar-10 14:28N 38°13' E 015°16'0 0.0
2019-Mar-10 13:58N 38°13' E 015°16'0 0.0
2019-Mar-10 13:28N 38°13' E 015°16'0 0.0
2019-Mar-10 12:58N 38°13' E 015°16'0 0.0
2019-Mar-10 12:28N 38°13' E 015°16'0 0.0
2019-Mar-10 11:58N 38°13' E 015°16'0 0.0
2019-Mar-10 11:28N 38°13' E 015°16'0 0.0
2019-Mar-10 10:58N 38°13' E 015°16'0 0.0
2019-Mar-10 10:28N 38°13' E 015°16'0 0.0
2019-Mar-10 09:58N 38°13' E 015°16'0 0.0
2019-Mar-10 09:28N 38°13' E 015°16'0 0.0
2019-Mar-10 08:58N 38°13' E 015°16'0 0.0
2019-Mar-10 08:25N 38°13' E 015°16'0 0.0
2019-Mar-10 07:58N 38°13' E 015°16'0 0.0
2019-Mar-10 07:28N 38°13' E 015°16'0 0.0
2019-Mar-10 06:58N 38°13' E 015°16'0 0.0
2019-Mar-10 06:25N 38°13' E 015°16'0 0.0
2019-Mar-10 05:58N 38°13' E 015°16'0 0.0
2019-Mar-10 05:28N 38°13' E 015°16'0 0.0
2019-Mar-10 04:58N 38°13' E 015°16'0 0.0
2019-Mar-10 04:28N 38°13' E 015°16'0 0.0
2019-Mar-10 03:58N 38°13' E 015°16'0 0.0
2019-Mar-10 03:28N 38°13' E 015°16'0 0.0
2019-Mar-10 02:58N 38°13' E 015°16'0 0.0
2019-Mar-10 02:28N 38°13' E 015°16'0 0.0
2019-Mar-10 01:58N 38°13' E 015°16'0 0.0
2019-Mar-10 01:28N 38°13' E 015°16'0 0.0
2019-Mar-10 00:58N 38°13' E 015°16'0 0.0
2019-Mar-10 00:28N 38°13' E 015°16'0 0.0
2019-Mar-09 23:58N 38°13' E 015°16'0 0.0
2019-Mar-09 23:28N 38°13' E 015°16'0 0.0
2019-Mar-09 22:58N 38°13' E 015°16'0 0.0
2019-Mar-09 22:28N 38°13' E 015°16'0 0.0
2019-Mar-09 21:58N 38°13' E 015°16'0 0.0
2019-Mar-09 21:28N 38°13' E 015°16'0 0.0
2019-Mar-09 20:58N 38°13' E 015°16'0 0.0
2019-Mar-09 20:25N 38°13' E 015°16'0 0.0
2019-Mar-09 19:58N 38°13' E 015°16'0 0.0
2019-Mar-09 19:28N 38°13' E 015°16'0 0.0
2019-Mar-09 18:58N 38°13' E 015°16'0 0.0
2019-Mar-09 18:28N 38°13' E 015°16'0 0.0
2019-Mar-09 17:55N 38°13' E 015°16'0 0.0
2019-Mar-09 17:28N 38°13' E 015°16'0 0.0
2019-Mar-09 16:58N 38°13' E 015°16'0 0.0
2019-Mar-09 16:28N 38°13' E 015°16'0 0.0
2019-Mar-09 15:52N 38°13' E 015°16'0 0.0
2019-Mar-09 15:28N 38°13' E 015°16'0 0.0
2019-Mar-09 14:58N 38°13' E 015°16'0 0.0
2019-Mar-09 14:25N 38°13' E 015°16'0 0.0
2019-Mar-09 13:58N 38°13' E 015°16'0 0.0
2019-Mar-09 13:28N 38°13' E 015°16'0 0.0
2019-Mar-09 12:58N 38°13' E 015°16'0 0.0
2019-Mar-09 12:28N 38°13' E 015°16'0 0.0
2019-Mar-09 11:58N 38°13' E 015°16'0 0.0
2019-Mar-09 11:28N 38°13' E 015°16'0 0.0
2019-Mar-09 10:58N 38°13' E 015°16'0 0.0
2019-Mar-09 10:28N 38°13' E 015°16'0 0.0
2019-Mar-09 09:58N 38°13' E 015°16'0 0.0
2019-Mar-09 09:28N 38°13' E 015°16'0 0.0
2019-Mar-09 08:58N 38°13' E 015°16'0 0.0
2019-Mar-09 08:28N 38°13' E 015°16'0 0.0
2019-Mar-09 07:58N 38°13' E 015°16'0 0.0
2019-Mar-09 07:28N 38°13' E 015°16'0 0.0
2019-Mar-09 06:58N 38°13' E 015°16'0 0.0
2019-Mar-09 06:28N 38°13' E 015°16'0 0.0
2019-Mar-09 05:58N 38°13' E 015°16'0 0.0
2019-Mar-09 05:28N 38°13' E 015°16'0 0.0
2019-Mar-09 04:55N 38°13' E 015°16'0 0.0
2019-Mar-09 04:28N 38°13' E 015°16'0 0.0
2019-Mar-09 03:58N 38°13' E 015°16'0 0.0
2019-Mar-09 03:28N 38°13' E 015°16'0 0.0
2019-Mar-09 02:58N 38°13' E 015°16'0 0.0
2019-Mar-09 02:28N 38°13' E 015°16'0 0.0
2019-Mar-09 01:58N 38°13' E 015°16'0 0.0
2019-Mar-09 01:28N 38°13' E 015°16'0 0.0
2019-Mar-09 00:58N 38°13' E 015°16'0 0.0
2019-Mar-09 00:28N 38°13' E 015°16'0 0.0
2019-Mar-08 23:58N 38°13' E 015°16'0 0.0
2019-Mar-08 23:28N 38°13' E 015°16'0 0.0
2019-Mar-08 22:58N 38°13' E 015°16'0 0.0
2019-Mar-08 22:28N 38°13' E 015°16'0 0.0
2019-Mar-08 21:58N 38°13' E 015°16'0 0.0
2019-Mar-08 21:28N 38°13' E 015°16'0 0.0
2019-Mar-08 20:58N 38°13' E 015°16'0 0.0
2019-Mar-08 20:28N 38°13' E 015°16'0 0.0
2019-Mar-08 19:58N 38°13' E 015°16'0 0.0
2019-Mar-08 19:28N 38°13' E 015°16'0 0.0
2019-Mar-08 18:55N 38°13' E 015°16'0 0.0
2019-Mar-08 18:22N 38°13' E 015°16'0 0.0
2019-Mar-08 17:58N 38°13' E 015°16'0 0.0
2019-Mar-08 17:28N 38°13' E 015°16'0 0.0
2019-Mar-08 16:58N 38°13' E 015°16'0 0.0
2019-Mar-08 16:28N 38°13' E 015°16'0 0.0
2019-Mar-08 15:58N 38°13' E 015°16'0 0.0
2019-Mar-08 15:28N 38°13' E 015°16'0 0.0
2019-Mar-08 14:58N 38°13' E 015°16'0 0.0
2019-Mar-08 14:28N 38°13' E 015°16'0 0.0
2019-Mar-08 13:58N 38°13' E 015°16'0 0.0
2019-Mar-08 13:28N 38°13' E 015°16'0 0.0
2019-Mar-08 12:58N 38°13' E 015°16'0 0.0
2019-Mar-08 12:28N 38°13' E 015°16'0 0.0
2019-Mar-08 11:58N 38°13' E 015°16'0 0.0
2019-Mar-08 11:28N 38°13' E 015°16'0 0.0
2019-Mar-08 10:58N 38°13' E 015°16'0 0.0
2019-Mar-08 10:28N 38°13' E 015°16'0 0.0
2019-Mar-08 09:55N 38°13' E 015°16'0 0.0
2019-Mar-08 09:28N 38°13' E 015°16'0 0.0
2019-Mar-08 08:58N 38°13' E 015°16'0 0.0
2019-Mar-08 08:28N 38°13' E 015°16'0 0.0
2019-Mar-08 07:58N 38°13' E 015°16'0 0.0
2019-Mar-08 07:28N 38°13' E 015°16'0 0.2
2019-Mar-08 07:00N 38°13' E 015°16'2 3.5
2019-Mar-08 06:30N 38°14' E 015°18'2 3.0
2019-Mar-08 05:59N 38°14' E 015°20'0 0.1
2019-Mar-08 05:29N 38°14' E 015°20'0 0.0
2019-Mar-08 04:59N 38°14' E 015°20'0 0.1
2019-Mar-08 04:29N 38°14' E 015°20'0 0.0
2019-Mar-08 03:59N 38°14' E 015°20'0 0.0
2019-Mar-08 03:29N 38°14' E 015°20'0 0.0
2019-Mar-08 02:59N 38°14' E 015°20'0 0.1
2019-Mar-08 02:29N 38°14' E 015°20'0 0.0
2019-Mar-08 01:59N 38°14' E 015°20'  

Dump ship's entire track history